Latest Weather Observations for Swan Island

IDT60801

Issued at 8:01 am EDT Tuesday 9 February 2016 (issued every 30 minutes, with the page automatically refreshed every 10 minutes)

About weather observations | Map of weather stations | Latest weather observations for TAS | Other Formats
Station Details ID: 092123 Name: SWAN ISLAND Lat: -40.73 Lon: 148.12 Height: 15.0 m
Data from the previous 72 hours. | See also: Recent months at Swan Island
Date/Time
EDT
Temp
°C
App
Temp
°C
Dew
Point
Rel
Hum
%
Delta-T
°C
Wind Press
QNH
hPa
Press
MSL
hPa
Rain
since 9 am
mm
Dir
 
Spd
km/h
Gust
km/h
Spd
kts
Gust
kts
09/08:00am 20.0 18.4 17.4 85 1.6 ENE 22 24 12 13 1021.0 1020.9 0.0
09/07:30am 19.9 17.9 17.3 85 1.6 ENE 24 28 13 15 1020.7 1020.6 0.0
09/07:00am 19.8 18.2 17.4 86 1.5 ENE 22 26 12 14 1020.4 1020.3 0.0
09/06:30am 19.9 18.2 17.3 85 1.6 ENE 22 28 12 15 1020.3 1020.2 0.0
09/06:00am 19.8 18.1 17.2 85 1.6 ENE 22 26 12 14 1020.0 1019.9 0.0
09/05:30am 19.7 17.6 17.1 85 1.6 ENE 24 28 13 15 1019.7 1019.6 0.0
09/05:00am 19.7 17.6 17.1 85 1.6 ENE 24 28 13 15 1019.6 1019.5 0.0
09/04:30am 19.8 17.7 17.2 85 1.6 ENE 24 30 13 16 1019.6 1019.5 0.0
09/04:00am 19.8 17.8 17.4 86 1.5 ENE 24 28 13 15 1019.5 1019.4 0.0
09/03:30am 19.7 17.7 17.3 86 1.5 ENE 24 28 13 15 1019.5 1019.4 0.0
09/03:00am 19.6 18.0 17.4 87 1.3 ENE 22 28 12 15 1019.6 1019.5 0.0
09/02:30am 19.6 16.9 17.6 88 1.2 ENE 28 32 15 17 1019.6 1019.5 0.0
09/02:00am 19.8 17.2 17.8 88 1.2 ENE 28 33 15 18 1019.6 1019.5 0.0
09/01:30am 19.8 18.0 17.9 89 1.2 ENE 24 32 13 17 1019.8 1019.7 0.0
09/01:00am 19.5 19.7 17.6 89 1.2 ENE 13 17 7 9 1019.9 1019.8 0.0
09/12:30am 19.4 19.7 17.9 91 0.9 E 13 15 7 8 1019.9 1019.8 0.0
09/12:00am 19.4 19.7 17.9 91 0.9 E 13 15 7 8 1019.9 1019.8 0.0
 
Date/Time
EDT
Temp
°C
App
Temp
°C
Dew
Point
Rel
Hum
%
Delta-T
°C
Wind Press
QNH
hPa
Press
MSL
hPa
Rain
since 9 am
mm
Dir
 
Spd
km/h
Gust
km/h
Spd
kts
Gust
kts
08/11:30pm 19.5 20.5 17.8 90 1.0 E 9 11 5 6 1020.0 1019.9 0.0
08/11:00pm 19.5 20.4 17.6 89 1.2 ENE 9 9 5 5 1019.9 1019.8 0.0
08/10:30pm 19.7 21.2 18.0 90 1.0 NE 7 9 4 5 1019.8 1019.7 0.0
08/10:00pm 19.7 21.1 17.8 89 1.2 NE 7 9 4 5 1019.8 1019.7 0.0
08/09:30pm 19.7 21.2 17.7 88 1.2 NNE 6 7 3 4 1019.5 1019.4 0.0
08/09:00pm 19.9 21.4 17.5 86 1.5 N 6 6 3 3 1019.1 1019.0 0.0
08/08:30pm 20.1 21.4 17.1 83 1.8 NW 6 9 3 5 1018.8 1018.7 0.0
08/08:00pm 20.5 21.1 16.9 80 2.2 WNW 9 13 5 7 1018.5 1018.4 0.0
08/07:30pm 21.0 21.1 16.4 75 2.8 WNW 11 15 6 8 1018.1 1018.0 0.0
08/07:00pm 21.6 21.4 16.6 73 3.0 WNW 13 17 7 9 1017.7 1017.6 0.0
08/06:30pm 21.9 21.6 16.4 71 3.3 WNW 13 19 7 10 1017.6 1017.5 0.0
08/06:00pm 22.2 21.3 16.9 72 3.2 NW 17 22 9 12 1017.4 1017.3 0.0
08/05:30pm 22.6 21.7 16.9 70 3.5 NW 17 22 9 12 1017.5 1017.4 0.0
08/05:00pm 22.8 21.3 16.4 67 3.9 WNW 19 24 10 13 1017.7 1017.6 0.0
08/04:30pm 23.0 22.0 16.5 67 4.0 WNW 17 24 9 13 1017.8 1017.7 0.0
08/04:00pm 23.1 21.7 17.1 69 3.7 WNW 20 30 11 16 1017.7 1017.6 0.0
08/03:30pm 23.1 21.4 17.3 70 3.6 WNW 22 30 12 16 1017.5 1017.4 0.0
08/03:00pm 23.1 21.3 16.9 68 3.8 NW 22 30 12 16 1017.5 1017.4 0.0
08/02:30pm 23.3 21.3 17.3 69 3.7 NW 24 30 13 16 1017.6 1017.5 0.0
08/02:00pm 23.2 22.1 17.7 71 3.4 NW 20 28 11 15 1017.6 1017.5 0.0
08/01:30pm 23.0 21.5 17.7 72 3.3 NW 22 28 12 15 1017.8 1017.7 0.0
08/01:00pm 23.5 22.1 17.0 67 4.0 NW 20 28 11 15 1018.0 1017.9 0.0
08/12:30pm 23.6 22.0 16.6 65 4.3 WNW 20 26 11 14 1018.0 1017.9 0.0
08/12:00pm 23.2 21.8 16.5 66 4.1 WNW 19 24 10 13 1018.4 1018.3 0.0
08/11:30am 22.9 22.1 16.2 66 4.1 WNW 15 22 8 12 1018.4 1018.3 0.0
08/11:00am 23.2 22.7 15.8 63 4.5 WNW 13 19 7 10 1018.5 1018.4 0.0
08/10:30am 23.5 22.7 16.1 63 4.5 W 15 20 8 11 1018.3 1018.2 0.0
08/10:00am 22.4 21.3 16.4 69 3.6 W 17 22 9 12 1018.4 1018.3 0.0
08/09:30am 21.4 20.5 16.8 75 2.8 W 17 20 9 11 1018.3 1018.2 0.0
08/09:00am 21.6 22.2 17.6 78 2.5 WSW 11 17 6 9 1018.4 1018.3 0.0
08/08:30am 20.7 21.6 17.5 82 2.0 WSW 9 15 5 8 1018.2 1018.1 0.0
08/08:00am 19.8 21.2 17.8 88 1.2 WSW 7 9 4 5 1018.2 1018.1 0.0
08/07:30am 19.3 21.2 17.6 90 1.0 SW 4 6 2 3 1018.0 1017.9 0.0
08/07:00am 19.0 21.5 17.3 90 1.0 CALM 0 0 0 0 1017.8 1017.7 0.0
08/06:30am 18.5 20.4 16.8 90 1.0 SW 2 2 1 1 1017.7 1017.6 0.0
08/06:00am 18.4 19.9 16.7 90 1.0 SW 4 4 2 2 1017.6 1017.5 0.0
08/05:30am 18.2 19.6 16.5 90 1.0 SW 4 6 2 3 1017.5 1017.4 0.0
08/05:00am 17.8 18.7 16.0 89 1.1 SW 6 6 3 3 1017.4 1017.3 0.0
08/04:30am 17.9 19.1 15.9 88 1.2 SW 4 6 2 3 1017.4 1017.3 0.0
08/04:00am 18.4 20.6 16.4 88 1.2 CALM 0 2 0 1 1017.3 1017.2 0.0
08/03:30am 18.4 19.4 16.4 88 1.2 SW 6 6 3 3 1017.4 1017.3 0.0
08/03:00am 18.6 20.5 16.6 88 1.2 SW 2 4 1 2 1017.6 1017.5 0.0
08/02:30am 18.6 19.6 16.4 87 1.3 WSW 6 6 3 3 1017.8 1017.7 0.0
08/02:00am 19.5 20.8 17.1 86 1.5 W 6 7 3 4 1017.9 1017.8 0.0
08/01:30am 19.4 21.4 17.0 86 1.5 W 2 6 1 3 1018.1 1018.0 0.0
08/01:00am 19.2 20.7 16.6 85 1.6 W 4 4 2 2 1018.2 1018.1 0.0
08/12:30am 19.3 20.4 16.5 84 1.7 W 6 7 3 4 1018.1 1018.0 0.0
08/12:00am 19.8 21.1 17.0 84 1.7 W 6 7 3 4 1018.4 1018.3 0.0
 
Date/Time
EDT
Temp
°C
App
Temp
°C
Dew
Point
Rel
Hum
%
Delta-T
°C
Wind Press
QNH
hPa
Press
MSL
hPa
Rain
since 9 am
mm
Dir
 
Spd
km/h
Gust
km/h
Spd
kts
Gust
kts
07/11:30pm 19.7 21.2 16.7 83 1.8 W 4 6 2 3 1018.3 1018.2 0.0
07/11:00pm 19.5 21.2 17.1 86 1.5 W 4 6 2 3 1018.3 1018.2 0.0
07/10:30pm 19.8 21.2 17.4 86 1.5 WNW 6 7 3 4 1018.4 1018.3 0.0
07/10:00pm 20.5 21.6 18.1 86 1.5 NW 9 13 5 7 1018.3 1018.2 0.0
07/09:30pm 20.6 20.6 18.0 85 1.6 NNW 15 20 8 11 1018.0 1017.9 0.0
07/09:00pm 20.7 20.2 17.9 84 1.7 N 17 19 9 10 1017.5 1017.4 0.0
07/08:30pm 20.9 20.7 17.7 82 2.0 N 15 19 8 10 1017.1 1017.0 0.0
07/08:00pm 20.9 21.3 17.3 80 2.2 NNE 11 17 6 9 1016.9 1016.8 0.0
07/07:30pm 20.9 21.1 17.7 82 2.0 NE 13 17 7 9 1016.7 1016.6 0.0
07/07:00pm 20.9 20.0 17.7 82 2.0 NE 19 24 10 13 1016.8 1016.7 0.0
07/06:30pm 21.0 19.8 17.4 80 2.2 NE 20 26 11 14 1016.7 1016.6 0.0
07/06:00pm 21.3 19.1 16.9 76 2.7 NE 24 28 13 15 1016.6 1016.5 0.0
07/05:30pm 21.6 19.4 17.0 75 2.8 ENE 24 30 13 16 1016.5 1016.4 0.0
07/05:00pm 21.8 19.8 16.5 72 3.2 ENE 22 28 12 15 1016.8 1016.7 0.0
07/04:30pm 22.4 20.8 16.4 69 3.6 ENE 20 24 11 13 1016.9 1016.8 0.0
07/04:00pm 22.3 20.5 16.1 68 3.7 ENE 20 24 11 13 1016.9 1016.8 0.0
07/03:30pm 22.3 20.7 16.6 70 3.5 ENE 20 24 11 13 1017.0 1016.9 0.0
07/03:00pm 22.9 21.4 16.4 67 3.9 ENE 19 24 10 13 1017.4 1017.3 0.0
07/02:30pm 23.0 21.5 16.3 66 4.1 ENE 19 22 10 12 1017.5 1017.4 0.0
07/02:00pm 23.2 22.0 16.0 64 4.4 ENE 17 19 9 10 1017.6 1017.5 0.0
07/01:30pm 23.0 22.1 15.8 64 4.3 ENE 15 19 8 10 1017.9 1017.8 0.0
07/01:00pm 23.4 23.1 16.4 64 4.3 ENE 13 17 7 9 1018.0 1017.9 0.0
07/12:30pm 22.8 22.6 15.6 64 4.3 ENE 11 13 6 7 1018.2 1018.1 0.0
07/12:00pm 22.8 22.8 15.1 62 4.6 ENE 9 13 5 7 1018.3 1018.2 0.0
07/11:30am 22.3 22.7 15.2 64 4.2 E 7 9 4 5 1018.6 1018.5 0.0
07/11:00am 21.8 22.0 14.7 64 4.2 ENE 7 9 4 5 1018.7 1018.6 0.0
07/10:30am 21.5 21.8 14.6 65 4.1 NE 6 7 3 4 1018.9 1018.8 0.0
07/10:00am 21.0 21.4 13.7 63 4.2 N 4 6 2 3 1019.0 1018.9 0.0
07/09:30am 20.8 21.0 14.7 68 3.6 N 7 11 4 6 1018.9 1018.8 0.0
07/09:00am 20.1 19.1 14.5 70 3.3 N 13 17 7 9 1018.8 1018.7 0.0
07/08:30am 19.9 18.9 14.7 72 3.0 N 13 17 7 9 1018.5 1018.4 0.0
07/08:00am 20.1 20.3 14.7 71 3.2 NNE 7 9 4 5 1018.3 1018.2 0.0
07/07:30am 19.7 19.2 14.9 74 2.8 NNE 11 15 6 8 1018.0 1017.9 0.0
07/07:00am 19.2 18.7 14.9 76 2.5 N 11 17 6 9 1017.8 1017.7 0.0
07/06:30am 19.1 18.9 14.8 76 2.5 NNE 9 13 5 7 1017.5 1017.4 0.0
07/06:00am 19.4 18.5 14.9 75 2.6 N 13 17 7 9 1017.3 1017.2 0.0
07/05:30am 19.4 18.9 14.9 75 2.6 NNE 11 15 6 8 1017.3 1017.2 0.0
07/05:00am 19.2 19.3 15.5 79 2.2 NNE 9 11 5 6 1017.3 1017.2 0.0
07/04:30am 18.9 19.0 15.4 80 2.1 NNE 9 13 5 7 1017.4 1017.3 0.0
07/04:00am 19.1 19.4 16.0 82 1.8 NNE 9 13 5 7 1017.4 1017.3 0.0
07/03:30am 18.9 18.4 16.0 83 1.7 NNE 13 17 7 9 1017.3 1017.2 0.0
07/03:00am 19.1 18.0 16.3 84 1.7 N 17 22 9 12 1017.5 1017.4 0.0
07/02:30am 19.1 18.8 16.5 85 1.6 NNE 13 17 7 9 1017.6 1017.5 0.0
07/02:00am 19.1 18.0 16.3 84 1.7 NNE 17 24 9 13 1017.6 1017.5 0.0
07/01:30am 18.9 18.7 15.6 81 1.9 NNE 11 17 6 9 1018.1 1018.0 0.0
07/01:00am 19.0 18.9 16.0 83 1.8 N 11 15 6 8 1018.5 1018.4 0.0
07/12:30am 19.3 18.1 16.2 82 1.9 NNE 17 22 9 12 1018.6 1018.5 0.0
07/12:00am 19.3 17.8 16.3 83 1.8 NNE 19 24 10 13 1018.7 1018.6 0.0
 
Date/Time
EDT
Temp
°C
App
Temp
°C
Dew
Point
Rel
Hum
%
Delta-T
°C
Wind Press
QNH
hPa
Press
MSL
hPa
Rain
since 9 am
mm
Dir
 
Spd
km/h
Gust
km/h
Spd
kts
Gust
kts
06/11:30pm 19.4 18.3 16.4 83 1.8 NNE 17 20 9 11 1019.0 1018.9 0.0
06/11:00pm 19.4 18.1 15.9 80 2.1 NNE 17 22 9 12 1019.0 1018.9 0.0
06/10:30pm 19.4 17.8 16.1 81 2.0 NNE 19 24 10 13 1018.8 1018.7 0.0
06/10:00pm 19.5 18.0 16.3 82 1.9 NNE 19 22 10 12 1019.1 1019.0 0.0
06/09:30pm 19.5 17.8 16.3 82 1.9 NE 20 24 11 13 1019.0 1018.9 0.0
06/09:00pm 19.6 18.0 16.1 80 2.1 NE 19 24 10 13 1018.8 1018.7 0.0
06/08:30pm 19.6 18.2 16.6 83 1.8 NE 19 24 10 13 1018.6 1018.5 0.0
06/08:00pm 19.8 18.2 16.4 81 2.0 NE 20 24 11 13 1018.5 1018.4 0.0
06/07:30pm 20.1 18.6 16.7 81 2.1 NE 20 24 11 13 1018.3 1018.2 0.0
06/07:00pm 20.5 18.7 16.1 76 2.6 ENE 20 24 11 13 1018.2 1018.1 0.0
06/06:30pm 21.0 19.5 16.2 74 2.9 ENE 19 20 10 11 1018.2 1018.1 0.0
06/06:00pm 21.1 19.5 16.1 73 3.0 ENE 19 22 10 12 1018.3 1018.2 0.0
06/05:30pm 21.4 20.3 16.4 73 3.0 ENE 17 20 9 11 1018.5 1018.4 0.0
06/05:00pm 21.4 19.8 15.9 71 3.3 ENE 19 22 10 12 1018.6 1018.5 0.0
06/04:30pm 21.8 20.2 15.9 69 3.5 ENE 19 22 10 12 1018.7 1018.6 0.0
06/04:00pm 22.3 20.7 16.1 68 3.7 ENE 19 20 10 11 1018.8 1018.7 0.0
06/03:30pm 22.0 20.6 15.6 67 3.8 ENE 17 20 9 11 1019.3 1019.2 0.0
06/03:00pm 23.1 21.9 16.2 65 4.2 E 17 20 9 11 1019.5 1019.4 0.0
06/02:30pm 23.4 22.4 15.7 62 4.6 E 15 17 8 9 1019.8 1019.7 0.0
06/02:00pm 22.4 21.6 16.0 67 3.9 E 15 19 8 10 1020.1 1020.0 0.0
06/01:30pm 21.9 20.7 16.2 70 3.4 ENE 17 19 9 10 1020.4 1020.3 0.0
06/01:00pm 22.3 21.5 16.1 68 3.7 ENE 15 17 8 9 1020.6 1020.5 0.0
06/12:30pm 21.8 21.0 16.1 70 3.4 NE 15 17 8 9 1020.8 1020.7 0.0
06/12:00pm 21.2 20.5 15.3 69 3.5 E 13 19 7 10 1021.0 1020.9 0.0
06/11:30am 21.2 20.7 16.0 72 3.1 ESE 13 17 7 9 1021.3 1021.2 0.0
06/11:00am 21.4 21.9 16.6 74 2.9 ESE 9 13 5 7 1021.3 1021.2 0.0
06/10:30am 20.8 21.3 16.6 77 2.5 E 9 11 5 6 1021.3 1021.2 0.0
06/10:00am 20.1 20.5 16.3 79 2.3 E 9 11 5 6 1021.3 1021.2 0.0
06/09:30am 19.8 20.1 16.1 79 2.2 NE 9 11 5 6 1021.3 1021.2 0.0
06/09:00am 19.0 17.7 15.7 81 1.9 NE 17 24 9 13 1021.2 1021.1 0.0
06/08:30am 19.4 18.9 14.9 75 2.6 NE 11 13 6 7 1021.2 1021.1 0.0

Other Formats:

Comma delimited format used in spreadsheet applications
http://www.bom.gov.au/fwo/IDT60801/IDT60801.95985.axf

JavaScript Object Notation format (JSON) in row-major order
http://www.bom.gov.au/fwo/IDT60801/IDT60801.95985.json